Portada
METAR-TAF:

METAR-TAF

Aeropuertos :

Aeropuerto de Gibraltar

Gibraltar, Gibraltar

latitud: 36-09N, longitud: 005-21W, altitud: 5 m

Observación

El informe se hizo hace 43 minutos, a las 17:50 UTC
Viento 12 kt del oeste
Temperatura 15°C
Humedad 67%
Presión 1018 hPa
Visibilidad 10 km o más

METAR: LXGB 161750Z AUTO 26012KT 9999 // OVC060/// 15/09 Q1018

Hora: 19:33 (18:33 UTC)

Pronóstico

El informe se hizo hace 1 hora y 41 minutos, a las 16:52 UTC
Pronóstico válido del 16 a las 18 UTC al 16 a las 23 UTC
Viento 7 kt del oeste
Visibilidad 10 km o más
Escasas nubes a una altura de 3000 ft
Probabilidad 40% :
Temporalmente
del 16 a las 18 UTC al 16 a las 23 UTC
Visibilidad: 5000 m
Nubes dispersas a una altura de 2000 ft
chaparrones de lluvia

TAF: LXGB 161652Z 1618/1623 27007KT 9999 FEW030 PROB40 TEMPO 1618/1623 5000 SHRA SCT020

Observaciones y pronósticos meteorológicos de más de 4000 aeropuertos (mensajes METAR y TAF).

Los puntos amarillos y rojos representan las estaciones disponibles.

Ponga el ratón en el punto deseado para ver el nombre de la estación.

Haga clic para ver las observaciones y los pronósticos meteorológicos.

Para cambiar el mapa : haga clic en los botones verdes con una cruz de color negro para hacer un zoom, en el botón verde con un guión para alejar o en las flechas verdes para mapas adyacentes.


METAR-TAF: